sensor_id;sensor_type;location;lat;lon;timestamp;pressure;altitude;pressure_sealevel;temperature;humidity
10135;BME280;5107;48.850;8.924;2024-01-15T00:02:20;95683.47;;;-2.01;80.52
10135;BME280;5107;48.850;8.924;2024-01-15T00:04:45;95686.03;;;-2.01;80.48
10135;BME280;5107;48.850;8.924;2024-01-15T00:07:10;95685.38;;;-2.03;80.68
10135;BME280;5107;48.850;8.924;2024-01-15T00:09:36;95685.25;;;-2.01;80.61
10135;BME280;5107;48.850;8.924;2024-01-15T00:12:01;95682.53;;;-2.00;80.52
10135;BME280;5107;48.850;8.924;2024-01-15T00:14:28;95683.72;;;-2.04;80.97
10135;BME280;5107;48.850;8.924;2024-01-15T00:16:56;95680.78;;;-1.99;80.94
10135;BME280;5107;48.850;8.924;2024-01-15T00:19:21;95677.53;;;-2.01;81.23
10135;BME280;5107;48.850;8.924;2024-01-15T00:21:47;95680.09;;;-2.01;81.15
10135;BME280;5107;48.850;8.924;2024-01-15T00:24:13;95673.97;;;-2.00;81.49
10135;BME280;5107;48.850;8.924;2024-01-15T00:26:39;95679.13;;;-2.00;81.47
10135;BME280;5107;48.850;8.924;2024-01-15T00:29:07;95674.56;;;-1.97;81.63
10135;BME280;5107;48.850;8.924;2024-01-15T00:31:32;95676.78;;;-1.92;81.63
10135;BME280;5107;48.850;8.924;2024-01-15T00:33:57;95668.38;;;-1.94;81.74
10135;BME280;5107;48.850;8.924;2024-01-15T00:36:26;95662.50;;;-1.96;81.59
10135;BME280;5107;48.850;8.924;2024-01-15T00:38:52;95654.56;;;-1.93;82.00
10135;BME280;5107;48.850;8.924;2024-01-15T00:41:17;95668.25;;;-1.93;81.69
10135;BME280;5107;48.850;8.924;2024-01-15T00:43:44;95665.53;;;-1.91;81.96
10135;BME280;5107;48.850;8.924;2024-01-15T00:46:09;95662.63;;;-1.86;81.49
10135;BME280;5107;48.850;8.924;2024-01-15T00:48:35;95663.66;;;-1.78;80.95
10135;BME280;5107;48.850;8.924;2024-01-15T00:51:00;95669.03;;;-1.70;80.92
10135;BME280;5107;48.850;8.924;2024-01-15T00:53:26;95672.75;;;-1.63;80.60
10135;BME280;5107;48.850;8.924;2024-01-15T00:55:51;95672.03;;;-1.65;80.54
10135;BME280;5107;48.850;8.924;2024-01-15T00:58:16;95675.09;;;-1.60;80.45
10135;BME280;5107;48.850;8.924;2024-01-15T01:00:42;95674.50;;;-1.63;80.23
10135;BME280;5107;48.850;8.924;2024-01-15T01:03:08;95665.25;;;-1.66;80.47
10135;BME280;5107;48.850;8.924;2024-01-15T01:05:34;95669.72;;;-1.68;80.74
10135;BME280;5107;48.850;8.924;2024-01-15T01:08:00;95666.44;;;-1.70;80.93
10135;BME280;5107;48.850;8.924;2024-01-15T01:10:25;95671.94;;;-1.63;80.90
10135;BME280;5107;48.850;8.924;2024-01-15T01:12:50;95665.84;;;-1.62;81.01
10135;BME280;5107;48.850;8.924;2024-01-15T01:15:16;95670.88;;;-1.61;80.64
10135;BME280;5107;48.850;8.924;2024-01-15T01:17:41;95661.72;;;-1.65;80.69
10135;BME280;5107;48.850;8.924;2024-01-15T01:20:07;95657.28;;;-1.63;81.21
10135;BME280;5107;48.850;8.924;2024-01-15T01:22:34;95665.00;;;-1.63;81.20
10135;BME280;5107;48.850;8.924;2024-01-15T01:24:59;95656.47;;;-1.63;80.90
10135;BME280;5107;48.850;8.924;2024-01-15T01:27:25;95648.84;;;-1.65;81.11
10135;BME280;5107;48.850;8.924;2024-01-15T01:29:50;95657.28;;;-1.63;81.24
10135;BME280;5107;48.850;8.924;2024-01-15T01:32:16;95650.91;;;-1.59;80.31
10135;BME280;5107;48.850;8.924;2024-01-15T01:34:42;95657.72;;;-1.58;80.81
10135;BME280;5107;48.850;8.924;2024-01-15T01:37:08;95657.88;;;-1.59;80.68
10135;BME280;5107;48.850;8.924;2024-01-15T01:39:34;95658.09;;;-1.62;80.58
10135;BME280;5107;48.850;8.924;2024-01-15T01:41:59;95651.19;;;-1.62;80.83
10135;BME280;5107;48.850;8.924;2024-01-15T01:44:24;95652.34;;;-1.66;80.72
10135;BME280;5107;48.850;8.924;2024-01-15T01:46:51;95652.34;;;-1.66;80.55
10135;BME280;5107;48.850;8.924;2024-01-15T01:49:17;95648.28;;;-1.68;80.87
10135;BME280;5107;48.850;8.924;2024-01-15T01:51:42;95641.38;;;-1.68;81.20
10135;BME280;5107;48.850;8.924;2024-01-15T01:54:08;95647.19;;;-1.66;81.52
10135;BME280;5107;48.850;8.924;2024-01-15T01:56:36;95649.22;;;-1.69;81.27
10135;BME280;5107;48.850;8.924;2024-01-15T01:59:02;95650.16;;;-1.70;81.30
10135;BME280;5107;48.850;8.924;2024-01-15T02:01:30;95638.91;;;-1.69;81.17
10135;BME280;5107;48.850;8.924;2024-01-15T02:03:56;95643.59;;;-1.74;81.33
10135;BME280;5107;48.850;8.924;2024-01-15T02:06:23;95641.72;;;-1.72;81.21
10135;BME280;5107;48.850;8.924;2024-01-15T02:08:48;95645.56;;;-1.67;81.22
10135;BME280;5107;48.850;8.924;2024-01-15T02:11:14;95651.53;;;-1.66;81.01
10135;BME280;5107;48.850;8.924;2024-01-15T02:13:39;95636.88;;;-1.66;81.28
10135;BME280;5107;48.850;8.924;2024-01-15T02:16:05;95637.97;;;-1.68;81.15
10135;BME280;5107;48.850;8.924;2024-01-15T02:18:42;95636.44;;;-1.71;81.54
10135;BME280;5107;48.850;8.924;2024-01-15T02:21:09;95639.59;;;-1.67;81.09
10135;BME280;5107;48.850;8.924;2024-01-15T02:23:34;95641.22;;;-1.66;81.30
10135;BME280;5107;48.850;8.924;2024-01-15T02:26:00;95633.63;;;-1.68;81.23
10135;BME280;5107;48.850;8.924;2024-01-15T02:28:32;95631.19;;;-1.69;81.04
10135;BME280;5107;48.850;8.924;2024-01-15T02:30:58;95632.81;;;-1.68;81.60
10135;BME280;5107;48.850;8.924;2024-01-15T02:33:23;95634.44;;;-1.67;81.60
10135;BME280;5107;48.850;8.924;2024-01-15T02:35:51;95640.06;;;-1.62;81.64
10135;BME280;5107;48.850;8.924;2024-01-15T02:38:17;95638.28;;;-1.62;81.17
10135;BME280;5107;48.850;8.924;2024-01-15T02:40:43;95622.56;;;-1.59;80.90
10135;BME280;5107;48.850;8.924;2024-01-15T02:43:09;95613.78;;;-1.56;81.08
10135;BME280;5107;48.850;8.924;2024-01-15T02:45:37;95623.25;;;-1.57;81.21
10135;BME280;5107;48.850;8.924;2024-01-15T02:48:02;95614.47;;;-1.54;81.25
10135;BME280;5107;48.850;8.924;2024-01-15T02:50:28;95626.44;;;-1.53;81.04
10135;BME280;5107;48.850;8.924;2024-01-15T02:52:53;95618.31;;;-1.48;80.82
10135;BME280;5107;48.850;8.924;2024-01-15T02:55:19;95625.69;;;-1.44;80.87
10135;BME280;5107;48.850;8.924;2024-01-15T02:57:44;95617.69;;;-1.41;80.38
10135;BME280;5107;48.850;8.924;2024-01-15T03:00:10;95617.34;;;-1.36;80.09
10135;BME280;5107;48.850;8.924;2024-01-15T03:02:37;95619.09;;;-1.37;80.21
10135;BME280;5107;48.850;8.924;2024-01-15T03:05:05;95611.09;;;-1.34;80.26
10135;BME280;5107;48.850;8.924;2024-01-15T03:07:31;95626.31;;;-1.31;79.56
10135;BME280;5107;48.850;8.924;2024-01-15T03:09:57;95623.38;;;-1.26;79.27
10135;BME280;5107;48.850;8.924;2024-01-15T03:12:22;95625.56;;;-1.22;79.02
10135;BME280;5107;48.850;8.924;2024-01-15T03:14:47;95625.47;;;-1.20;79.08
10135;BME280;5107;48.850;8.924;2024-01-15T03:17:15;95626.72;;;-1.15;78.70
10135;BME280;5107;48.850;8.924;2024-01-15T03:19:41;95632.06;;;-1.06;79.06
10135;BME280;5107;48.850;8.924;2024-01-15T03:22:06;95623.88;;;-1.11;78.29
10135;BME280;5107;48.850;8.924;2024-01-15T03:24:34;95625.13;;;-1.06;78.56
10135;BME280;5107;48.850;8.924;2024-01-15T03:27:02;95620.56;;;-1.02;77.76
10135;BME280;5107;48.850;8.924;2024-01-15T03:29:28;95623.13;;;-1.02;78.07
10135;BME280;5107;48.850;8.924;2024-01-15T03:31:53;95615.81;;;-0.97;77.71
10135;BME280;5107;48.850;8.924;2024-01-15T03:34:19;95620.44;;;-1.01;77.85
10135;BME280;5107;48.850;8.924;2024-01-15T03:36:44;95618.66;;;-1.00;78.07
10135;BME280;5107;48.850;8.924;2024-01-15T03:39:10;95622.50;;;-0.95;77.86
10135;BME280;5107;48.850;8.924;2024-01-15T03:41:35;95616.28;;;-0.92;77.79
10135;BME280;5107;48.850;8.924;2024-01-15T03:44:00;95616.53;;;-0.95;78.23
10135;BME280;5107;48.850;8.924;2024-01-15T03:46:26;95623.31;;;-0.94;77.97
10135;BME280;5107;48.850;8.924;2024-01-15T03:48:52;95616.81;;;-0.89;78.07
10135;BME280;5107;48.850;8.924;2024-01-15T03:51:17;95619.53;;;-0.90;77.71
10135;BME280;5107;48.850;8.924;2024-01-15T03:53:43;95618.47;;;-0.88;77.94
10135;BME280;5107;48.850;8.924;2024-01-15T03:56:09;95615.06;;;-0.88;78.28
10135;BME280;5107;48.850;8.924;2024-01-15T03:58:34;95601.91;;;-0.85;78.33
10135;BME280;5107;48.850;8.924;2024-01-15T04:01:09;95612.47;;;-0.88;78.27
10135;BME280;5107;48.850;8.924;2024-01-15T04:03:34;95601.22;;;-0.87;78.29
10135;BME280;5107;48.850;8.924;2024-01-15T04:06:00;95601.22;;;-0.87;78.59
10135;BME280;5107;48.850;8.924;2024-01-15T04:08:25;95593.84;;;-0.92;78.20
10135;BME280;5107;48.850;8.924;2024-01-15T04:10:56;95589.25;;;-0.88;78.44
10135;BME280;5107;48.850;8.924;2024-01-15T04:13:22;95588.31;;;-0.87;78.33
10135;BME280;5107;48.850;8.924;2024-01-15T04:15:47;95592.53;;;-0.86;78.06
10135;BME280;5107;48.850;8.924;2024-01-15T04:18:13;95590.75;;;-0.86;78.35
10135;BME280;5107;48.850;8.924;2024-01-15T04:20:38;95590.06;;;-0.88;78.65
10135;BME280;5107;48.850;8.924;2024-01-15T04:23:04;95588.72;;;-0.82;78.32
10135;BME280;5107;48.850;8.924;2024-01-15T04:25:29;95592.53;;;-0.86;78.24
10135;BME280;5107;48.850;8.924;2024-01-15T04:27:54;95586.78;;;-0.90;78.18
10135;BME280;5107;48.850;8.924;2024-01-15T04:30:20;95575.66;;;-0.90;77.57
10135;BME280;5107;48.850;8.924;2024-01-15T04:32:45;95582.63;;;-0.81;77.75
10135;BME280;5107;48.850;8.924;2024-01-15T04:35:11;95577.59;;;-0.83;77.45
10135;BME280;5107;48.850;8.924;2024-01-15T04:37:37;95574.75;;;-0.80;77.34
10135;BME280;5107;48.850;8.924;2024-01-15T04:40:03;95559.78;;;-0.86;77.27
10135;BME280;5107;48.850;8.924;2024-01-15T04:42:29;95562.50;;;-0.87;77.58
10135;BME280;5107;48.850;8.924;2024-01-15T04:44:54;95556.13;;;-0.83;76.91
10135;BME280;5107;48.850;8.924;2024-01-15T04:47:19;95571.59;;;-0.83;77.37
10135;BME280;5107;48.850;8.924;2024-01-15T04:49:45;95570.41;;;-0.79;76.58
10135;BME280;5107;48.850;8.924;2024-01-15T04:52:10;95569.03;;;-0.83;77.11
10135;BME280;5107;48.850;8.924;2024-01-15T04:54:36;95579.09;;;-0.80;77.37
10135;BME280;5107;48.850;8.924;2024-01-15T04:57:01;95579.97;;;-0.70;77.06
10135;BME280;5107;48.850;8.924;2024-01-15T04:59:27;95571.28;;;-0.69;76.79
10135;BME280;5107;48.850;8.924;2024-01-15T05:01:53;95572.50;;;-0.63;76.36
10135;BME280;5107;48.850;8.924;2024-01-15T05:04:18;95569.13;;;-0.64;76.17
10135;BME280;5107;48.850;8.924;2024-01-15T05:06:43;95571.00;;;-0.66;76.50
10135;BME280;5107;48.850;8.924;2024-01-15T05:09:09;95561.19;;;-0.72;76.28
10135;BME280;5107;48.850;8.924;2024-01-15T05:11:34;95563.78;;;-0.72;76.73
10135;BME280;5107;48.850;8.924;2024-01-15T05:13:59;95557.25;;;-0.76;76.78
10135;BME280;5107;48.850;8.924;2024-01-15T05:16:25;95556.28;;;-0.75;77.07
10135;BME280;5107;48.850;8.924;2024-01-15T05:18:53;95540.94;;;-0.77;77.03
10135;BME280;5107;48.850;8.924;2024-01-15T05:21:18;95538.22;;;-0.75;76.25
10135;BME280;5107;48.850;8.924;2024-01-15T05:23:44;95545.72;;;-0.72;76.47
10135;BME280;5107;48.850;8.924;2024-01-15T05:26:09;95542.72;;;-0.77;77.17
10135;BME280;5107;48.850;8.924;2024-01-15T05:28:34;95540.78;;;-0.75;77.14
10135;BME280;5107;48.850;8.924;2024-01-15T05:31:00;95548.69;;;-0.77;77.21
10135;BME280;5107;48.850;8.924;2024-01-15T05:33:26;95545.97;;;-0.75;76.63
10135;BME280;5107;48.850;8.924;2024-01-15T05:35:51;95542.31;;;-0.72;77.05
10135;BME280;5107;48.850;8.924;2024-01-15T05:38:17;95539.72;;;-0.72;76.10
10135;BME280;5107;48.850;8.924;2024-01-15T05:40:42;95546.13;;;-0.67;76.42
10135;BME280;5107;48.850;8.924;2024-01-15T05:43:08;95548.97;;;-0.70;76.33
10135;BME280;5107;48.850;8.924;2024-01-15T05:45:35;95539.34;;;-0.68;76.43
10135;BME280;5107;48.850;8.924;2024-01-15T05:48:00;95533.22;;;-0.67;76.13
10135;BME280;5107;48.850;8.924;2024-01-15T05:50:26;95537.31;;;-0.64;75.95
10135;BME280;5107;48.850;8.924;2024-01-15T05:52:51;95535.41;;;-0.62;75.99
10135;BME280;5107;48.850;8.924;2024-01-15T05:55:17;95541.41;;;-0.62;75.90
10135;BME280;5107;48.850;8.924;2024-01-15T05:57:44;95547.09;;;-0.58;75.41
10135;BME280;5107;48.850;8.924;2024-01-15T06:00:09;95539.69;;;-0.52;75.23
10135;BME280;5107;48.850;8.924;2024-01-15T06:02:37;95536.41;;;-0.54;74.78
10135;BME280;5107;48.850;8.924;2024-01-15T06:05:02;95523.75;;;-0.57;76.07
10135;BME280;5107;48.850;8.924;2024-01-15T06:07:28;95526.72;;;-0.61;75.58
10135;BME280;5107;48.850;8.924;2024-01-15T06:09:53;95514.75;;;-0.62;75.89
10135;BME280;5107;48.850;8.924;2024-01-15T06:12:18;95510.66;;;-0.65;75.71
10135;BME280;5107;48.850;8.924;2024-01-15T06:14:44;95513.13;;;-0.63;76.13
10135;BME280;5107;48.850;8.924;2024-01-15T06:17:09;95513.00;;;-0.62;75.84
10135;BME280;5107;48.850;8.924;2024-01-15T06:19:34;95500.91;;;-0.61;75.50
10135;BME280;5107;48.850;8.924;2024-01-15T06:22:00;95510.41;;;-0.62;75.66
10135;BME280;5107;48.850;8.924;2024-01-15T06:24:25;95505.00;;;-0.59;75.47
10135;BME280;5107;48.850;8.924;2024-01-15T06:26:50;95509.47;;;-0.61;75.02
10135;BME280;5107;48.850;8.924;2024-01-15T06:29:16;95517.75;;;-0.57;75.21
10135;BME280;5107;48.850;8.924;2024-01-15T06:31:41;95514.78;;;-0.53;74.36
10135;BME280;5107;48.850;8.924;2024-01-15T06:34:06;95508.16;;;-0.46;73.68
10135;BME280;5107;48.850;8.924;2024-01-15T06:36:32;95518.75;;;-0.39;73.47
10135;BME280;5107;48.850;8.924;2024-01-15T06:38:57;95520.41;;;-0.38;72.23
10135;BME280;5107;48.850;8.924;2024-01-15T06:41:22;95512.94;;;-0.31;71.40
10135;BME280;5107;48.850;8.924;2024-01-15T06:43:48;95523.53;;;-0.34;71.71
10135;BME280;5107;48.850;8.924;2024-01-15T06:46:20;95520.81;;;-0.33;71.53
10135;BME280;5107;48.850;8.924;2024-01-15T06:48:45;95515.25;;;-0.28;71.83
10135;BME280;5107;48.850;8.924;2024-01-15T06:51:11;95515.81;;;-0.15;72.68
10135;BME280;5107;48.850;8.924;2024-01-15T06:53:36;95509.97;;;-0.08;71.28
10135;BME280;5107;48.850;8.924;2024-01-15T06:56:01;95514.31;;;-0.08;70.77
10135;BME280;5107;48.850;8.924;2024-01-15T06:58:26;95513.66;;;-0.10;70.96
10135;BME280;5107;48.850;8.924;2024-01-15T07:00:52;95512.00;;;-0.11;70.73
10135;BME280;5107;48.850;8.924;2024-01-15T07:03:17;95519.22;;;-0.05;70.64
10135;BME280;5107;48.850;8.924;2024-01-15T07:05:42;95515.44;;;-0.01;70.47
10135;BME280;5107;48.850;8.924;2024-01-15T07:08:08;95518.41;;;-0.06;70.85
10135;BME280;5107;48.850;8.924;2024-01-15T07:10:33;95517.88;;;-0.09;71.00
10135;BME280;5107;48.850;8.924;2024-01-15T07:12:59;95526.00;;;-0.14;71.31
10135;BME280;5107;48.850;8.924;2024-01-15T07:15:24;95523.03;;;-0.19;72.40
10135;BME280;5107;48.850;8.924;2024-01-15T07:17:49;95521.94;;;-0.26;73.08
10135;BME280;5107;48.850;8.924;2024-01-15T07:20:15;95514.66;;;-0.42;73.46
10135;BME280;5107;48.850;8.924;2024-01-15T07:22:40;95520.91;;;-0.54;74.14
10135;BME280;5107;48.850;8.924;2024-01-15T07:25:06;95519.09;;;-0.63;74.52
10135;BME280;5107;48.850;8.924;2024-01-15T07:27:32;95523.69;;;-0.66;74.51
10135;BME280;5107;48.850;8.924;2024-01-15T07:29:57;95518.00;;;-0.70;74.99
10135;BME280;5107;48.850;8.924;2024-01-15T07:32:23;95513.38;;;-0.66;74.85
10135;BME280;5107;48.850;8.924;2024-01-15T07:34:48;95517.19;;;-0.70;75.09
10135;BME280;5107;48.850;8.924;2024-01-15T07:37:14;95520.59;;;-0.70;75.03
10135;BME280;5107;48.850;8.924;2024-01-15T07:39:39;95524.94;;;-0.70;74.87
10135;BME280;5107;48.850;8.924;2024-01-15T07:42:05;95525.19;;;-0.73;75.26
10135;BME280;5107;48.850;8.924;2024-01-15T07:44:30;95519.34;;;-0.75;75.51
10135;BME280;5107;48.850;8.924;2024-01-15T07:46:56;95514.19;;;-0.75;76.13
10135;BME280;5107;48.850;8.924;2024-01-15T07:49:21;95509.56;;;-0.72;75.96
10135;BME280;5107;48.850;8.924;2024-01-15T07:51:48;95507.66;;;-0.70;75.65
10135;BME280;5107;48.850;8.924;2024-01-15T07:54:14;95513.66;;;-0.69;75.31
10135;BME280;5107;48.850;8.924;2024-01-15T07:57:00;95506.72;;;-0.69;75.70
10135;BME280;5107;48.850;8.924;2024-01-15T07:59:26;95514.47;;;-0.69;75.86
10135;BME280;5107;48.850;8.924;2024-01-15T08:01:52;95513.38;;;-0.66;75.98
10135;BME280;5107;48.850;8.924;2024-01-15T08:04:18;95525.09;;;-0.62;75.40
10135;BME280;5107;48.850;8.924;2024-01-15T08:06:44;95527.25;;;-0.58;75.05
10135;BME280;5107;48.850;8.924;2024-01-15T08:09:10;95528.53;;;-0.52;73.87
10135;BME280;5107;48.850;8.924;2024-01-15T08:11:36;95536.44;;;-0.44;73.34
10135;BME280;5107;48.850;8.924;2024-01-15T08:14:01;95528.28;;;-0.40;73.32
10135;BME280;5107;48.850;8.924;2024-01-15T08:16:26;95533.34;;;-0.28;72.83
10135;BME280;5107;48.850;8.924;2024-01-15T08:18:52;95533.09;;;-0.25;71.71
10135;BME280;5107;48.850;8.924;2024-01-15T08:21:18;95531.44;;;-0.26;70.66
10135;BME280;5107;48.850;8.924;2024-01-15T08:23:44;95528.69;;;-0.25;71.16
10135;BME280;5107;48.850;8.924;2024-01-15T08:26:10;95534.59;;;-0.13;71.06
10135;BME280;5107;48.850;8.924;2024-01-15T08:28:35;95528.22;;;-0.09;70.39
10135;BME280;5107;48.850;8.924;2024-01-15T08:31:01;95531.84;;;-0.21;70.31
10135;BME280;5107;48.850;8.924;2024-01-15T08:33:26;95525.19;;;-0.24;70.30
10135;BME280;5107;48.850;8.924;2024-01-15T08:35:51;95520.03;;;-0.14;70.48
10135;BME280;5107;48.850;8.924;2024-01-15T08:38:18;95518.69;;;-0.09;70.54
10135;BME280;5107;48.850;8.924;2024-01-15T08:40:44;95518.81;;;-0.10;70.38
10135;BME280;5107;48.850;8.924;2024-01-15T08:43:09;95513.66;;;-0.10;70.05
10135;BME280;5107;48.850;8.924;2024-01-15T08:45:35;95521.00;;;-0.06;70.39
10135;BME280;5107;48.850;8.924;2024-01-15T08:48:00;95518.97;;;0.08;70.25
10135;BME280;5107;48.850;8.924;2024-01-15T08:50:26;95522.25;;;0.00;70.19
10135;BME280;5107;48.850;8.924;2024-01-15T08:52:51;95524.53;;;0.03;69.51
10135;BME280;5107;48.850;8.924;2024-01-15T08:55:17;95517.34;;;0.07;70.17
10135;BME280;5107;48.850;8.924;2024-01-15T08:57:42;95520.06;;;0.05;70.32
10135;BME280;5107;48.850;8.924;2024-01-15T09:00:08;95513.94;;;0.06;70.60
10135;BME280;5107;48.850;8.924;2024-01-15T09:02:34;95523.69;;;-0.07;70.33
10135;BME280;5107;48.850;8.924;2024-01-15T09:05:00;95522.25;;;0.00;70.02
10135;BME280;5107;48.850;8.924;2024-01-15T09:14:09;95495.03;;;0.06;69.38
10135;BME280;5107;48.850;8.924;2024-01-15T09:16:35;95498.56;;;0.14;69.29
10135;BME280;5107;48.850;8.924;2024-01-15T09:19:00;95489.03;;;0.15;69.21
10135;BME280;5107;48.850;8.924;2024-01-15T09:21:25;95494.88;;;0.17;69.78
10135;BME280;5107;48.850;8.924;2024-01-15T09:23:51;95488.22;;;0.14;69.62
10135;BME280;5107;48.850;8.924;2024-01-15T09:26:16;95489.97;;;0.23;69.76
10135;BME280;5107;48.850;8.924;2024-01-15T09:28:42;95498.94;;;0.29;69.15
10135;BME280;5107;48.850;8.924;2024-01-15T09:31:07;95504.38;;;0.26;69.47
10135;BME280;5107;48.850;8.924;2024-01-15T09:33:33;95501.81;;;0.26;69.06
10135;BME280;5107;48.850;8.924;2024-01-15T09:36:02;95502.50;;;0.18;69.25
10135;BME280;5107;48.850;8.924;2024-01-15T09:38:29;95503.84;;;0.13;69.95
10135;BME280;5107;48.850;8.924;2024-01-15T09:40:54;95499.50;;;0.13;70.05
10135;BME280;5107;48.850;8.924;2024-01-15T09:43:21;95501.66;;;0.27;70.17
10135;BME280;5107;48.850;8.924;2024-01-15T09:45:46;95506.19;;;0.16;70.60
10135;BME280;5107;48.850;8.924;2024-01-15T09:48:12;95499.38;;;0.24;70.99
10135;BME280;5107;48.850;8.924;2024-01-15T09:50:38;95500.97;;;0.25;70.48
10135;BME280;5107;48.850;8.924;2024-01-15T09:53:05;95490.63;;;0.25;70.00
10135;BME280;5107;48.850;8.924;2024-01-15T09:55:30;95487.13;;;0.17;70.69
10135;BME280;5107;48.850;8.924;2024-01-15T09:57:59;95488.75;;;0.27;70.97
10135;BME280;5107;48.850;8.924;2024-01-15T10:00:25;95489.28;;;0.31;70.87
10135;BME280;5107;48.850;8.924;2024-01-15T10:02:52;95494.47;;;0.41;70.30
10135;BME280;5107;48.850;8.924;2024-01-15T10:05:17;95491.59;;;0.34;70.82
10135;BME280;5107;48.850;8.924;2024-01-15T10:07:43;95495.41;;;0.40;70.11
10135;BME280;5107;48.850;8.924;2024-01-15T10:10:10;95482.06;;;0.34;70.63
10135;BME280;5107;48.850;8.924;2024-01-15T10:12:36;95486.69;;;0.41;70.47
10135;BME280;5107;48.850;8.924;2024-01-15T10:15:02;95483.56;;;0.37;70.40
10135;BME280;5107;48.850;8.924;2024-01-15T10:17:27;95480.59;;;0.32;70.12
10135;BME280;5107;48.850;8.924;2024-01-15T10:19:53;95482.50;;;0.30;70.92
10135;BME280;5107;48.850;8.924;2024-01-15T10:22:18;95479.63;;;0.33;70.83
10135;BME280;5107;48.850;8.924;2024-01-15T10:24:44;95477.72;;;0.35;70.79
10135;BME280;5107;48.850;8.924;2024-01-15T10:27:10;95474.84;;;0.28;70.83
10135;BME280;5107;48.850;8.924;2024-01-15T10:29:35;95470.38;;;0.30;71.08
10135;BME280;5107;48.850;8.924;2024-01-15T10:32:07;95470.78;;;0.26;71.17
10135;BME280;5107;48.850;8.924;2024-01-15T10:34:39;95464.25;;;0.31;71.64
10135;BME280;5107;48.850;8.924;2024-01-15T10:37:07;95456.63;;;0.20;71.65
10135;BME280;5107;48.850;8.924;2024-01-15T10:39:32;95457.44;;;0.21;72.02
10135;BME280;5107;48.850;8.924;2024-01-15T10:41:58;95454.19;;;0.19;72.76
10135;BME280;5107;48.850;8.924;2024-01-15T10:44:23;95454.19;;;0.19;72.99
10135;BME280;5107;48.850;8.924;2024-01-15T10:46:49;95454.31;;;0.27;73.58
10135;BME280;5107;48.850;8.924;2024-01-15T10:49:14;95453.22;;;0.29;73.78
10135;BME280;5107;48.850;8.924;2024-01-15T10:51:41;95442.75;;;0.21;75.40
10135;BME280;5107;48.850;8.924;2024-01-15T10:54:09;95445.75;;;0.17;76.29
10135;BME280;5107;48.850;8.924;2024-01-15T10:56:37;95445.22;;;0.13;77.44
10135;BME280;5107;48.850;8.924;2024-01-15T10:59:03;95441.28;;;-0.20;82.17
10135;BME280;5107;48.850;8.924;2024-01-15T11:01:30;95443.03;;;-0.30;84.73
10135;BME280;5107;48.850;8.924;2024-01-15T11:03:56;95445.50;;;-0.28;86.05
10135;BME280;5107;48.850;8.924;2024-01-15T11:06:25;95441.97;;;-0.27;86.93
10135;BME280;5107;48.850;8.924;2024-01-15T11:08:52;95430.81;;;-0.38;86.96
10135;BME280;5107;48.850;8.924;2024-01-15T11:11:20;95434.75;;;-0.43;87.70
10135;BME280;5107;48.850;8.924;2024-01-15T11:13:49;95436.22;;;-0.41;87.98
10135;BME280;5107;48.850;8.924;2024-01-15T11:16:17;95428.91;;;-0.35;87.78
10135;BME280;5107;48.850;8.924;2024-01-15T11:19:03;95432.69;;;-0.30;87.80
10135;BME280;5107;48.850;8.924;2024-01-15T11:21:31;95422.25;;;-0.28;87.62
10135;BME280;5107;48.850;8.924;2024-01-15T11:24:01;95415.84;;;-0.24;87.92
10135;BME280;5107;48.850;8.924;2024-01-15T11:26:45;95414.34;;;-0.27;88.37
10135;BME280;5107;48.850;8.924;2024-01-15T11:29:32;95415.56;;;-0.31;88.89
10135;BME280;5107;48.850;8.924;2024-01-15T11:32:03;95417.47;;;-0.33;88.51
10135;BME280;5107;48.850;8.924;2024-01-15T11:35:01;95407.81;;;-0.31;88.50
10135;BME280;5107;48.850;8.924;2024-01-15T11:37:29;95420.88;;;-0.32;89.09
10135;BME280;5107;48.850;8.924;2024-01-15T11:40:00;95416.38;;;-0.30;88.61
10135;BME280;5107;48.850;8.924;2024-01-15T11:42:25;95418.56;;;-0.35;88.76
10135;BME280;5107;48.850;8.924;2024-01-15T11:44:50;95414.75;;;-0.31;89.50
10135;BME280;5107;48.850;8.924;2024-01-15T11:50:02;95425.63;;;-0.38;90.11
10135;BME280;5107;48.850;8.924;2024-01-15T11:52:34;95434.19;;;-0.37;91.31
10135;BME280;5107;48.850;8.924;2024-01-15T11:57:40;95417.75;;;-0.36;91.64
10135;BME280;5107;48.850;8.924;2024-01-15T12:00:06;95426.03;;;-0.32;90.76
10135;BME280;5107;48.850;8.924;2024-01-15T12:02:34;95421.81;;;-0.24;90.73
10135;BME280;5107;48.850;8.924;2024-01-15T12:04:59;95425.66;;;-0.18;90.15
10135;BME280;5107;48.850;8.924;2024-01-15T12:07:25;95436.50;;;-0.15;90.40
10135;BME280;5107;48.850;8.924;2024-01-15T12:09:50;95426.16;;;-0.05;90.03
10135;BME280;5107;48.850;8.924;2024-01-15T12:12:24;95432.41;;;0.02;89.70
10135;BME280;5107;48.850;8.924;2024-01-15T12:14:52;95438.41;;;0.03;89.39
10135;BME280;5107;48.850;8.924;2024-01-15T12:17:17;95432.69;;;0.09;89.59
10135;BME280;5107;48.850;8.924;2024-01-15T12:19:43;95436.38;;;0.06;88.91
10135;BME280;5107;48.850;8.924;2024-01-15T12:22:08;95436.78;;;0.11;89.32
10135;BME280;5107;48.850;8.924;2024-01-15T12:24:34;95437.59;;;0.21;88.64
10135;BME280;5107;48.850;8.924;2024-01-15T12:27:00;95434.03;;;0.22;87.62
10135;BME280;5107;48.850;8.924;2024-01-15T12:29:26;95438.38;;;0.31;87.40
10135;BME280;5107;48.850;8.924;2024-01-15T12:31:53;95450.38;;;0.32;87.94
10135;BME280;5107;48.850;8.924;2024-01-15T12:34:18;95433.72;;;0.35;87.15
10135;BME280;5107;48.850;8.924;2024-01-15T12:36:46;95439.22;;;0.32;87.35
10135;BME280;5107;48.850;8.924;2024-01-15T12:39:12;95434.72;;;0.24;87.34
10135;BME280;5107;48.850;8.924;2024-01-15T12:41:38;95434.97;;;0.31;87.50
10135;BME280;5107;48.850;8.924;2024-01-15T12:44:04;95441.94;;;0.30;87.48
10135;BME280;5107;48.850;8.924;2024-01-15T12:46:30;95439.06;;;0.33;87.04
10135;BME280;5107;48.850;8.924;2024-01-15T12:48:56;95441.09;;;0.40;87.26
10135;BME280;5107;48.850;8.924;2024-01-15T12:51:25;95440.84;;;0.33;87.13
10135;BME280;5107;48.850;8.924;2024-01-15T12:53:51;95446.13;;;0.41;86.56
10135;BME280;5107;48.850;8.924;2024-01-15T12:56:17;95445.97;;;0.43;86.34
10135;BME280;5107;48.850;8.924;2024-01-15T12:58:42;95445.56;;;0.47;85.66
10135;BME280;5107;48.850;8.924;2024-01-15T13:01:08;95443.38;;;0.43;86.21
10135;BME280;5107;48.850;8.924;2024-01-15T13:03:33;95437.00;;;0.37;85.73
10135;BME280;5107;48.850;8.924;2024-01-15T13:05:58;95445.59;;;0.37;85.98
10135;BME280;5107;48.850;8.924;2024-01-15T13:08:24;95452.66;;;0.35;86.09
10135;BME280;5107;48.850;8.924;2024-01-15T13:10:51;95452.53;;;0.37;86.21
10135;BME280;5107;48.850;8.924;2024-01-15T13:13:21;95452.00;;;0.33;85.65
10135;BME280;5107;48.850;8.924;2024-01-15T13:15:46;95466.41;;;0.36;86.35
10135;BME280;5107;48.850;8.924;2024-01-15T13:18:11;95450.88;;;0.36;86.44
10135;BME280;5107;48.850;8.924;2024-01-15T13:20:37;95460.03;;;0.30;86.39